createdAt,value
2018-05-17T04:09:44.540Z,11.86
2018-05-17T04:10:10.023Z,11.9
2018-05-17T04:10:35.510Z,11.81
2018-05-17T04:11:00.993Z,11.87
2018-05-17T04:11:26.496Z,11.84
2018-05-17T04:11:51.950Z,11.8
2018-05-17T04:12:17.429Z,11.83
2018-05-17T04:12:42.891Z,11.75
2018-05-17T04:13:08.383Z,11.84
2018-05-17T04:13:33.849Z,11.83
2018-05-17T04:13:59.336Z,11.84
2018-05-17T04:14:24.849Z,11.78
2018-05-17T04:14:50.345Z,11.78
2018-05-17T04:15:15.864Z,11.83
2018-05-17T04:15:41.344Z,11.78
2018-05-17T04:16:06.832Z,11.8
2018-05-17T04:16:32.322Z,11.78
2018-05-17T04:16:57.830Z,11.8
2018-05-17T04:17:23.313Z,11.8
2018-05-17T04:17:48.794Z,11.78
2018-05-17T04:18:14.275Z,11.78
2018-05-17T04:18:39.736Z,11.77
2018-05-17T04:19:05.206Z,11.9
2018-05-17T04:19:30.700Z,11.78
2018-05-17T04:19:56.199Z,11.83
2018-05-17T04:20:21.670Z,11.75
2018-05-17T04:20:47.151Z,11.8
2018-05-17T04:21:12.604Z,11.8
2018-05-17T04:21:38.098Z,11.77
2018-05-17T04:22:03.574Z,11.73
2018-05-17T04:22:29.067Z,11.8
2018-05-17T04:22:54.502Z,11.83
2018-05-17T04:23:20.027Z,11.77
2018-05-17T04:23:45.484Z,11.83
2018-05-17T04:24:10.974Z,11.77
2018-05-17T04:24:36.467Z,11.77
2018-05-17T04:25:01.959Z,11.78
2018-05-17T04:25:27.457Z,11.75
2018-05-17T04:25:52.966Z,11.81
2018-05-17T04:26:18.491Z,11.83
2018-05-17T04:26:43.957Z,11.7
2018-05-17T04:27:09.452Z,11.83
2018-05-17T04:27:34.982Z,11.86
2018-05-17T04:28:00.441Z,11.78
2018-05-17T04:28:26.154Z,11.81
2018-05-17T04:28:51.613Z,11.8
2018-05-17T04:29:17.155Z,11.87
2018-05-17T04:29:42.590Z,11.86
2018-05-17T04:30:08.094Z,11.84
2018-05-17T04:30:33.538Z,11.94
2018-05-17T04:30:59.000Z,11.99
2018-05-17T04:31:24.485Z,11.95
2018-05-17T04:31:49.970Z,11.99
2018-05-17T04:32:15.441Z,11.97
2018-05-17T04:32:41.007Z,11.99
2018-05-17T04:33:06.560Z,11.97
2018-05-17T04:33:32.020Z,11.95
2018-05-17T04:33:57.517Z,11.95
2018-05-17T04:34:23.029Z,11.94
2018-05-17T04:34:48.530Z,12
2018-05-17T04:35:14.004Z,11.97
2018-05-17T04:35:39.497Z,11.99
2018-05-17T04:36:04.995Z,12.02
2018-05-17T04:36:30.533Z,11.99
2018-05-17T04:36:56.051Z,11.91
2018-05-17T04:37:21.569Z,11.99
2018-05-17T04:37:47.016Z,12
2018-05-17T04:38:12.524Z,12.02
2018-05-17T04:38:38.000Z,11.97
2018-05-17T04:39:36.998Z,12
2018-05-17T04:40:02.421Z,12
2018-05-17T04:40:27.927Z,12.04
2018-05-17T04:40:53.412Z,12.06
2018-05-17T04:41:18.894Z,11.99
2018-05-17T04:41:44.361Z,12.03
2018-05-17T04:42:09.934Z,11.97
2018-05-17T04:42:35.407Z,12.02
2018-05-17T04:43:00.877Z,12.12
2018-05-17T04:43:26.366Z,11.91
2018-05-17T04:43:52.192Z,12
2018-05-17T04:44:17.881Z,12.06
2018-05-17T04:44:43.354Z,11.97
2018-05-17T04:45:08.872Z,11.99
2018-05-17T04:45:34.747Z,11.95
2018-05-17T04:46:00.607Z,12.03
2018-05-17T04:46:26.152Z,12.02
2018-05-17T04:46:52.402Z,11.95
2018-05-17T04:47:17.963Z,11.99
2018-05-17T04:47:43.564Z,11.94
2018-05-17T04:48:09.216Z,11.97
2018-05-17T04:48:34.789Z,11.95
2018-05-17T04:49:00.413Z,11.99
2018-05-17T04:49:26.010Z,12.13
2018-05-17T04:49:51.613Z,12.17
2018-05-17T04:50:17.206Z,12.09
2018-05-17T04:50:42.782Z,12.13
2018-05-17T04:51:08.470Z,12.12
2018-05-17T04:51:34.009Z,12.15
2018-05-17T04:51:59.769Z,12.22
2018-05-17T04:52:25.522Z,12.2
2018-05-17T04:52:51.077Z,12.17
2018-05-17T04:53:16.613Z,12.21
2018-05-17T04:53:42.155Z,12.27
2018-05-17T04:54:07.864Z,12.22
2018-05-17T04:54:33.584Z,12.17
2018-05-17T04:54:59.080Z,12.18
2018-05-17T04:55:24.706Z,12.15
2018-05-17T04:55:50.188Z,12.21
2018-05-17T04:56:15.723Z,12.22
2018-05-17T04:56:41.314Z,12.18
2018-05-17T04:57:06.963Z,12.21
2018-05-17T04:57:32.676Z,12.18
2018-05-17T04:57:58.290Z,12.24
2018-05-17T04:58:23.937Z,12.28
2018-05-17T04:58:49.490Z,12.27
2018-05-17T04:59:37.812Z,12.31
2018-05-17T05:00:03.527Z,12.28
2018-05-17T05:00:29.187Z,12.29
2018-05-17T05:00:54.914Z,12.27
2018-05-17T05:01:20.409Z,12.28
2018-05-17T05:01:46.170Z,12.35
2018-05-17T05:02:11.776Z,12.27
2018-05-17T05:02:37.670Z,12.29
2018-05-17T05:03:03.314Z,12.31
2018-05-17T05:03:28.635Z,12.32
2018-05-17T05:03:54.426Z,12.27
2018-05-17T05:04:48.092Z,12.31
2018-05-17T05:05:13.804Z,12.35
2018-05-17T05:05:39.297Z,12.37
2018-05-17T05:06:04.884Z,12.46
2018-05-17T05:06:30.584Z,12.49
2018-05-17T05:06:56.253Z,12.42
2018-05-17T05:07:21.964Z,12.39
2018-05-17T05:07:47.635Z,12.4
2018-05-17T05:08:13.235Z,12.43
2018-05-17T05:08:38.811Z,12.45
2018-05-17T05:09:04.561Z,12.46
2018-05-17T05:09:30.154Z,12.43
2018-05-17T05:09:55.609Z,12.45
2018-05-17T05:10:21.567Z,12.42
2018-05-17T05:10:47.079Z,12.43
2018-05-17T05:11:12.626Z,12.4
2018-05-17T05:11:38.340Z,12.45
2018-05-17T05:12:03.931Z,12.47
2018-05-17T05:12:29.567Z,12.45
2018-05-17T05:12:55.033Z,12.45
2018-05-17T05:13:20.583Z,12.43
2018-05-17T05:13:46.177Z,12.46
2018-05-17T05:14:11.839Z,12.43
2018-05-17T05:14:37.408Z,12.45
2018-05-17T05:15:02.977Z,12.46
2018-05-17T05:15:28.427Z,12.47
2018-05-17T05:15:53.986Z,12.53
2018-05-17T05:16:19.568Z,12.45
2018-05-17T05:16:45.135Z,12.46
2018-05-17T05:17:10.738Z,12.49
2018-05-17T05:17:36.333Z,12.45
2018-05-17T05:18:01.860Z,12.45
2018-05-17T05:18:27.449Z,12.47
2018-05-17T05:18:53.133Z,12.49
2018-05-17T05:19:18.711Z,12.49
2018-05-17T05:19:44.406Z,12.47
2018-05-17T05:20:09.917Z,12.47
2018-05-17T05:20:35.463Z,12.53
2018-05-17T05:21:01.006Z,12.58
2018-05-17T05:21:26.591Z,12.55
2018-05-17T05:21:52.195Z,12.5
2018-05-17T05:22:17.910Z,12.55
2018-05-17T05:22:43.619Z,12.61
2018-05-17T05:23:09.047Z,12.62
2018-05-17T05:23:34.570Z,12.7
2018-05-17T05:24:00.139Z,12.64
2018-05-17T05:24:25.666Z,12.6
2018-05-17T05:24:51.323Z,12.68
2018-05-17T05:25:16.818Z,12.72
2018-05-17T05:25:42.481Z,12.72
2018-05-17T05:26:08.264Z,12.7
2018-05-17T05:26:33.849Z,12.73
2018-05-17T05:26:59.525Z,12.72
2018-05-17T05:27:25.145Z,12.68
2018-05-17T05:27:50.816Z,12.68
2018-05-17T05:28:16.514Z,12.73
2018-05-17T05:28:42.029Z,12.58
2018-05-17T05:29:07.808Z,12.72
2018-05-17T05:29:33.567Z,12.72
2018-05-17T05:29:59.110Z,12.73
2018-05-17T05:30:24.802Z,12.62
2018-05-17T05:30:50.409Z,12.65
2018-05-17T05:31:15.986Z,12.67
2018-05-17T05:31:41.580Z,12.7
2018-05-17T05:32:07.141Z,12.68
2018-05-17T05:32:32.744Z,12.75
2018-05-17T05:32:58.356Z,12.7
2018-05-17T05:33:23.861Z,12.73
2018-05-17T05:33:49.475Z,12.72
2018-05-17T05:34:15.420Z,12.58
2018-05-17T05:34:41.847Z,12.65
2018-05-17T05:35:07.442Z,12.75
2018-05-17T05:35:33.026Z,12.75
2018-05-17T05:35:58.571Z,12.58
2018-05-17T05:36:24.072Z,12.67
2018-05-17T05:36:49.576Z,12.61
2018-05-17T05:37:15.061Z,12.73
2018-05-17T05:38:02.880Z,12.73
2018-05-17T05:38:28.431Z,12.64
2018-05-17T05:38:53.910Z,12.73
2018-05-17T05:39:19.390Z,12.73
2018-05-17T05:39:44.934Z,12.55
2018-05-17T05:40:10.424Z,12.62
2018-05-17T05:40:35.983Z,12.67
2018-05-17T05:41:01.417Z,12.57
2018-05-17T05:41:26.935Z,12.6
2018-05-17T05:41:52.518Z,12.57
2018-05-17T05:42:17.946Z,12.7
2018-05-17T05:42:43.434Z,12.58
2018-05-17T05:43:08.905Z,12.72
2018-05-17T05:43:34.397Z,12.73
2018-05-17T05:43:59.905Z,12.75
2018-05-17T05:44:25.395Z,12.76
2018-05-17T05:44:50.909Z,12.68
2018-05-17T05:45:16.370Z,12.67
2018-05-17T05:46:26.488Z,12.67
2018-05-17T05:46:51.923Z,12.64
2018-05-17T05:47:17.406Z,12.58
2018-05-17T05:47:42.896Z,12.73
2018-05-17T05:48:08.417Z,12.58
2018-05-17T05:48:33.899Z,12.61
2018-05-17T05:48:59.498Z,12.62
2018-05-17T05:49:25.067Z,12.61
2018-05-17T05:49:50.516Z,12.75
2018-05-17T05:50:16.024Z,12.6
2018-05-17T05:50:41.521Z,12.61
2018-05-17T05:51:07.031Z,12.64
2018-05-17T05:51:32.589Z,12.61
2018-05-17T05:51:58.092Z,12.64
2018-05-17T05:52:23.642Z,12.64
2018-05-17T05:52:49.114Z,12.65
2018-05-17T05:53:14.627Z,12.6
2018-05-17T05:53:40.120Z,12.64
2018-05-17T05:54:05.591Z,12.65
2018-05-17T05:54:31.095Z,12.64
2018-05-17T05:54:56.587Z,12.64
2018-05-17T05:55:22.066Z,12.67
2018-05-17T05:55:47.595Z,12.68
2018-05-17T05:56:13.081Z,12.61
2018-05-17T05:56:38.583Z,12.7
2018-05-17T05:57:04.062Z,12.68
2018-05-17T05:57:29.533Z,12.73
2018-05-17T05:57:55.007Z,12.72
2018-05-17T05:58:20.519Z,12.68
2018-05-17T05:58:46.014Z,12.7
2018-05-17T05:59:11.471Z,12.72
2018-05-17T05:59:36.960Z,12.67
2018-05-17T06:00:02.438Z,12.78
2018-05-17T06:00:27.911Z,12.78
2018-05-17T06:01:16.073Z,12.79
2018-05-17T06:01:41.578Z,12.8
2018-05-17T06:02:07.083Z,12.67
2018-05-17T06:02:32.582Z,12.68
2018-05-17T06:03:30.619Z,12.75
2018-05-17T06:03:56.111Z,12.8
2018-05-17T06:04:21.579Z,12.8
2018-05-17T06:04:47.080Z,12.68
2018-05-17T06:05:12.566Z,12.75
2018-05-17T06:05:38.042Z,12.8
2018-05-17T06:06:03.533Z,12.8
2018-05-17T06:06:29.048Z,12.8
2018-05-17T06:06:54.530Z,12.78
2018-05-17T06:07:20.032Z,12.8
2018-05-17T06:07:45.580Z,12.7
2018-05-17T06:08:11.090Z,12.67
2018-05-17T06:08:36.545Z,12.75
2018-05-17T06:09:02.035Z,12.79
2018-05-17T06:09:27.558Z,12.8
2018-05-17T06:09:53.060Z,12.78
2018-05-17T06:10:18.538Z,12.65
2018-05-17T06:10:44.035Z,12.83
2018-05-17T06:11:09.656Z,12.73
2018-05-17T06:11:35.174Z,12.75
2018-05-17T06:12:00.669Z,12.79
2018-05-17T06:12:26.149Z,12.68
2018-05-17T06:12:51.666Z,12.78
2018-05-17T06:13:17.160Z,12.76
2018-05-17T06:13:42.665Z,12.7
2018-05-17T06:14:08.147Z,12.76
2018-05-17T06:14:33.636Z,12.68
2018-05-17T06:14:59.144Z,12.68
2018-05-17T06:15:24.632Z,12.76
2018-05-17T06:15:50.104Z,12.7
2018-05-17T06:16:15.619Z,12.72
2018-05-17T06:16:41.108Z,12.7
2018-05-17T06:17:06.589Z,12.67
2018-05-17T06:17:32.113Z,12.82
2018-05-17T06:17:57.604Z,12.75
2018-05-17T06:18:23.086Z,12.78
2018-05-17T06:18:48.709Z,12.76
2018-05-17T06:19:14.212Z,12.85
2018-05-17T06:19:39.726Z,12.8
2018-05-17T06:20:05.221Z,12.79
2018-05-17T06:20:30.730Z,12.82
2018-05-17T06:20:56.228Z,12.94
2018-05-17T06:21:21.700Z,12.82
2018-05-17T06:21:47.167Z,12.85
2018-05-17T06:22:12.692Z,12.87
2018-05-17T06:22:38.178Z,12.83
2018-05-17T06:23:41.339Z,12.93
2018-05-17T06:24:06.810Z,12.9
2018-05-17T06:24:32.323Z,12.93
2018-05-17T06:24:57.800Z,12.93
2018-05-17T06:25:23.352Z,12.95
2018-05-17T06:25:48.818Z,12.97
2018-05-17T06:26:14.295Z,12.95
2018-05-17T06:27:22.979Z,13.09
2018-05-17T06:27:48.489Z,13.08
2018-05-17T06:28:13.976Z,13.01
2018-05-17T06:28:39.452Z,13.05
2018-05-17T06:29:04.956Z,13.04
2018-05-17T06:29:30.532Z,13.01
2018-05-17T06:29:56.118Z,13.04
2018-05-17T06:30:21.730Z,13.01
2018-05-17T06:30:47.301Z,12.98
2018-05-17T06:31:12.767Z,13.01
2018-05-17T06:31:38.264Z,13
2018-05-17T06:32:03.741Z,13.08
2018-05-17T06:32:29.244Z,12.97
2018-05-17T06:32:54.750Z,13.03
2018-05-17T06:33:20.224Z,13.03
2018-05-17T06:33:45.721Z,12.97
2018-05-17T06:34:11.198Z,12.97
2018-05-17T06:34:36.673Z,13.09
2018-05-17T06:35:02.179Z,13.05
2018-05-17T06:35:27.665Z,13.09
2018-05-17T06:35:53.178Z,13.05
2018-05-17T06:36:18.663Z,13.08
2018-05-17T06:36:44.140Z,13.13
2018-05-17T06:37:09.660Z,13.19
2018-05-17T06:37:35.210Z,13.2
2018-05-17T06:38:00.616Z,13.2
2018-05-17T06:38:26.102Z,13.15
2018-05-17T06:38:51.620Z,13.13
2018-05-17T06:39:17.090Z,13.31
2018-05-17T06:39:42.583Z,13.22
2018-05-17T06:40:08.306Z,13.27
2018-05-17T06:40:34.225Z,13.31
2018-05-17T06:40:59.714Z,13.33
2018-05-17T06:41:25.436Z,13.28
2018-05-17T06:41:51.059Z,13.3
2018-05-17T06:42:16.705Z,13.41
2018-05-17T06:42:42.269Z,13.37
2018-05-17T06:43:07.805Z,13.33
2018-05-17T06:43:33.295Z,13.19
2018-05-17T06:43:58.860Z,13.31
2018-05-17T06:44:24.327Z,13.37
2018-05-17T06:44:49.802Z,13.31
2018-05-17T06:45:15.292Z,13.33
2018-05-17T06:45:40.780Z,13.38
2018-05-17T06:46:06.255Z,13.39
2018-05-17T06:46:31.762Z,13.37
2018-05-17T06:46:57.256Z,13.38
2018-05-17T06:47:22.828Z,13.44
2018-05-17T06:47:48.332Z,13.44
2018-05-17T06:48:13.820Z,13.25
2018-05-17T06:48:39.324Z,13.42
2018-05-17T06:49:04.824Z,13.35
2018-05-17T06:49:30.325Z,13.38
2018-05-17T06:49:55.824Z,13.38
2018-05-17T06:50:21.308Z,13.42
2018-05-17T06:50:46.821Z,13.37
2018-05-17T06:51:12.313Z,13.37
2018-05-17T06:51:37.805Z,13.38
2018-05-17T06:52:03.295Z,13.38
2018-05-17T06:52:28.812Z,13.31
2018-05-17T06:53:26.875Z,13.25
2018-05-17T06:53:52.395Z,13.31
2018-05-17T06:54:17.909Z,13.39
2018-05-17T06:54:43.380Z,13.33
2018-05-17T06:55:08.889Z,13.35
2018-05-17T06:55:34.374Z,13.23
2018-05-17T06:55:59.852Z,13.37
2018-05-17T06:56:25.345Z,13.3
2018-05-17T06:56:50.831Z,13.33
2018-05-17T06:57:16.298Z,13.37
2018-05-17T06:57:41.768Z,13.33
2018-05-17T06:58:07.268Z,13.49
2018-05-17T06:58:32.766Z,13.41
2018-05-17T06:58:58.253Z,13.46
2018-05-17T06:59:23.750Z,13.41
2018-05-17T06:59:49.268Z,13.52
2018-05-17T07:00:15.238Z,13.59
2018-05-17T07:00:40.884Z,13.54
2018-05-17T07:01:06.240Z,13.54
2018-05-17T07:01:31.703Z,13.62
2018-05-17T07:01:57.217Z,13.7
2018-05-17T07:02:22.718Z,13.67
2018-05-17T07:02:48.230Z,13.63
2018-05-17T07:03:13.713Z,13.67
2018-05-17T07:03:39.216Z,13.67
2018-05-17T07:04:04.715Z,13.63
2018-05-17T07:04:30.191Z,13.7
2018-05-17T07:04:55.688Z,13.68
2018-05-17T07:05:21.165Z,13.7
2018-05-17T07:05:46.705Z,13.72
2018-05-17T07:06:12.161Z,13.75
2018-05-17T07:06:37.650Z,13.68
2018-05-17T07:07:03.160Z,13.77
2018-05-17T07:07:28.668Z,13.7
2018-05-17T07:07:54.204Z,13.72
2018-05-17T07:08:19.682Z,13.71
2018-05-17T07:08:45.193Z,13.72
2018-05-17T07:09:10.661Z,13.77
2018-05-17T07:09:36.127Z,13.77
2018-05-17T07:10:01.638Z,13.72
2018-05-17T07:10:27.168Z,13.75
2018-05-17T07:10:52.625Z,13.75
2018-05-17T07:11:18.089Z,13.77
2018-05-17T07:11:43.601Z,13.79
2018-05-17T07:12:09.115Z,13.79
2018-05-17T07:12:34.576Z,13.78
2018-05-17T07:13:00.068Z,13.77
2018-05-17T07:13:25.588Z,13.78
2018-05-17T07:13:51.100Z,13.77
2018-05-17T07:14:16.574Z,13.81
2018-05-17T07:15:04.407Z,13.92
2018-05-17T07:15:29.898Z,13.93
2018-05-17T07:15:55.399Z,13.95
2018-05-17T07:16:20.885Z,14
2018-05-17T07:16:46.369Z,14.08
2018-05-17T07:17:11.873Z,14.15
2018-05-17T07:17:37.368Z,14.22
2018-05-17T07:18:03.101Z,14.29
2018-05-17T07:18:28.613Z,14.35
2018-05-17T07:18:53.840Z,14.47
2018-05-17T07:19:19.323Z,14.45
2018-05-17T07:19:44.800Z,14.44
2018-05-17T07:20:10.259Z,14.45
2018-05-17T07:20:35.747Z,14.59
2018-05-17T07:21:01.239Z,14.58
2018-05-17T07:21:26.744Z,14.63
2018-05-17T07:21:52.224Z,14.62
2018-05-17T07:22:17.723Z,14.69
2018-05-17T07:22:43.211Z,14.81
2018-05-17T07:23:08.697Z,14.79
2018-05-17T07:23:34.151Z,14.81
2018-05-17T07:23:59.698Z,14.92
2018-05-17T07:24:25.219Z,15.02
2018-05-17T07:24:50.705Z,15.03
2018-05-17T07:25:16.199Z,15.11
2018-05-17T07:25:41.696Z,15.07
2018-05-17T07:26:07.200Z,15.14
2018-05-17T07:26:32.698Z,15.15
2018-05-17T07:26:58.212Z,15.28
2018-05-17T07:27:23.708Z,15.21
2018-05-17T07:27:49.229Z,15.22
2018-05-17T07:28:14.685Z,15.28
2018-05-17T07:28:40.181Z,15.29
2018-05-17T07:29:05.679Z,15.33
2018-05-17T07:29:31.168Z,15.25
2018-05-17T07:29:56.670Z,15.35
2018-05-17T07:30:22.166Z,15.36
2018-05-17T07:30:47.656Z,15.31
2018-05-17T07:31:13.157Z,15.25
2018-05-17T07:31:38.647Z,15.25
2018-05-17T07:32:04.135Z,15.19
2018-05-17T07:32:29.614Z,15.19
2018-05-17T07:32:55.111Z,15.24
2018-05-17T07:33:20.598Z,15.27
2018-05-17T07:33:46.126Z,15.19
2018-05-17T07:34:11.641Z,15.14
2018-05-17T07:34:37.132Z,15.09
2018-05-17T07:35:02.618Z,15.04
2018-05-17T07:35:28.128Z,15.03
2018-05-17T07:35:53.606Z,15.02
2018-05-17T07:36:19.086Z,15.04
2018-05-17T07:36:44.588Z,14.97
2018-05-17T07:37:10.057Z,14.88
2018-05-17T07:37:35.571Z,14.96
2018-05-17T07:38:01.094Z,14.88
2018-05-17T07:38:26.612Z,14.94
2018-05-17T07:38:52.146Z,14.89
2018-05-17T07:39:17.675Z,14.88
2018-05-17T07:39:43.170Z,14.82
2018-05-17T07:40:08.688Z,14.85
2018-05-17T07:40:34.140Z,14.88
2018-05-17T07:40:59.736Z,14.89
2018-05-17T07:41:25.273Z,14.88
2018-05-17T07:41:50.828Z,14.85
2018-05-17T07:42:16.323Z,14.86
2018-05-17T07:42:41.796Z,14.89
2018-05-17T07:43:07.381Z,14.88
2018-05-17T07:43:32.874Z,14.86
2018-05-17T07:43:58.372Z,14.94
2018-05-17T07:44:23.853Z,14.91
2018-05-17T07:44:49.336Z,14.97
2018-05-17T07:45:14.800Z,14.97
2018-05-17T07:45:40.319Z,15.06
2018-05-17T07:46:05.911Z,15.14
2018-05-17T07:46:31.644Z,15.07
2018-05-17T07:46:57.171Z,15.11
2018-05-17T07:47:22.853Z,15.1
2018-05-17T07:47:48.407Z,15.17
2018-05-17T07:48:14.100Z,15.09
2018-05-17T07:48:39.658Z,15.28
2018-05-17T07:49:05.341Z,15.33
2018-05-17T07:49:30.960Z,15.28
2018-05-17T07:49:56.692Z,15.35
2018-05-17T07:50:22.215Z,15.35
2018-05-17T07:50:47.784Z,15.51
2018-05-17T07:51:13.462Z,15.55
2018-05-17T07:51:39.030Z,15.57
2018-05-17T07:52:04.658Z,15.54
2018-05-17T07:52:30.267Z,15.59
2018-05-17T07:52:56.038Z,15.59
2018-05-17T07:53:21.672Z,15.72
2018-05-17T07:53:47.343Z,15.65
2018-05-17T07:54:12.893Z,15.76
2018-05-17T07:54:38.539Z,15.67
2018-05-17T07:55:03.953Z,15.65
2018-05-17T07:55:29.544Z,15.65
2018-05-17T07:55:55.128Z,15.73
2018-05-17T07:56:20.889Z,15.75
2018-05-17T07:56:46.412Z,15.67
2018-05-17T07:57:12.141Z,15.72
2018-05-17T07:57:37.707Z,15.76
2018-05-17T07:58:03.322Z,15.76
2018-05-17T07:58:28.913Z,15.9
2018-05-17T07:58:54.514Z,15.84
2018-05-17T07:59:20.136Z,16.05
2018-05-17T07:59:45.830Z,16.05
2018-05-17T08:00:11.306Z,16.08
2018-05-17T08:00:36.818Z,16.13
2018-05-17T08:01:02.288Z,16.16
2018-05-17T08:01:27.878Z,16.21
2018-05-17T08:01:53.572Z,16.26
2018-05-17T08:02:19.095Z,16.29
2018-05-17T08:02:44.691Z,16.28
2018-05-17T08:03:10.275Z,16.29
2018-05-17T08:03:35.944Z,16.32
2018-05-17T08:04:01.539Z,16.36
2018-05-17T08:04:27.129Z,16.38
2018-05-17T08:04:52.712Z,16.36
2018-05-17T08:05:18.261Z,16.38
2018-05-17T08:05:43.790Z,16.33
2018-05-17T08:06:09.520Z,16.35
2018-05-17T08:06:34.969Z,16.35
2018-05-17T08:07:00.548Z,16.36
2018-05-17T08:07:26.108Z,16.38
2018-05-17T08:07:52.468Z,16.33
2018-05-17T08:08:18.121Z,16.33
2018-05-17T08:08:43.771Z,16.26
2018-05-17T08:09:09.590Z,16.26
2018-05-17T08:09:35.312Z,16.15
2018-05-17T08:10:00.974Z,16.17
2018-05-17T08:10:26.705Z,16.17
2018-05-17T08:10:52.234Z,16.13
2018-05-17T08:11:17.788Z,16.23
2018-05-17T08:11:43.403Z,16.08
2018-05-17T08:12:08.967Z,16.13
2018-05-17T08:12:34.653Z,16.08
2018-05-17T08:13:00.197Z,16.08
2018-05-17T08:13:25.764Z,16.02
2018-05-17T08:13:51.298Z,16.02
2018-05-17T08:14:16.903Z,16.02
2018-05-17T08:14:42.449Z,16.01
2018-05-17T08:15:08.051Z,16.04
2018-05-17T08:15:34.029Z,15.95
2018-05-17T08:15:59.703Z,16.05
2018-05-17T08:16:25.531Z,16.05
2018-05-17T08:16:51.277Z,16.04
2018-05-17T08:17:16.968Z,16
2018-05-17T08:17:42.711Z,16.08
2018-05-17T08:18:08.372Z,16.12
2018-05-17T08:18:34.203Z,16
2018-05-17T08:18:59.920Z,16.13
2018-05-17T08:19:25.433Z,16.13
2018-05-17T08:19:51.231Z,16.16
2018-05-17T08:20:16.964Z,16.1
2018-05-17T08:20:42.637Z,16.16
2018-05-17T08:21:08.434Z,16.2
2018-05-17T08:21:34.000Z,16.2
2018-05-17T08:21:59.585Z,16.21
2018-05-17T08:22:25.133Z,16.21
2018-05-17T08:22:50.798Z,16.26
2018-05-17T08:23:16.516Z,16.33
2018-05-17T08:23:42.136Z,16.31
2018-05-17T08:24:07.748Z,16.35
2018-05-17T08:24:33.321Z,16.32
2018-05-17T08:24:59.019Z,16.36
2018-05-17T08:25:24.805Z,16.31
2018-05-17T08:25:50.349Z,16.33
2018-05-17T08:26:15.860Z,16.29
2018-05-17T08:26:41.653Z,16.29
2018-05-17T08:27:07.227Z,16.32
2018-05-17T08:27:33.100Z,16.33
2018-05-17T08:27:58.661Z,16.35
2018-05-17T08:28:24.266Z,16.39
2018-05-17T08:28:49.814Z,16.39
2018-05-17T08:29:15.408Z,16.41
2018-05-17T08:29:41.132Z,16.58
2018-05-17T08:30:06.909Z,16.54
2018-05-17T08:30:32.603Z,16.61
2018-05-17T08:30:58.206Z,16.56
2018-05-17T08:31:24.138Z,16.74
2018-05-17T08:31:49.738Z,16.69
2018-05-17T08:32:15.290Z,16.68
2018-05-17T08:32:40.795Z,16.69
2018-05-17T08:33:06.390Z,16.72
2018-05-17T08:33:32.169Z,16.71
2018-05-17T08:33:57.850Z,16.69
2018-05-17T08:34:23.474Z,16.69
2018-05-17T08:34:49.070Z,16.72
2018-05-17T08:35:14.641Z,16.74
2018-05-17T08:35:40.346Z,16.71
2018-05-17T08:36:05.998Z,16.64
2018-05-17T08:36:31.711Z,16.53
2018-05-17T08:36:57.170Z,16.64
2018-05-17T08:37:22.891Z,16.56
2018-05-17T08:37:48.512Z,16.56
2018-05-17T08:38:14.094Z,16.54
2018-05-17T08:38:39.835Z,16.47
2018-05-17T08:39:05.863Z,16.31
2018-05-17T08:39:31.672Z,16.35
2018-05-17T08:39:57.230Z,16.28
2018-05-17T08:40:22.784Z,16.26
2018-05-17T08:40:48.353Z,16.21
2018-05-17T08:41:14.019Z,16.2
2018-05-17T08:41:39.666Z,16.16
2018-05-17T08:42:05.514Z,16.15
2018-05-17T08:42:31.064Z,16.15
2018-05-17T08:42:57.003Z,16
2018-05-17T08:43:22.663Z,16.05
2018-05-17T08:43:48.276Z,15.95
2018-05-17T08:44:13.834Z,15.97
2018-05-17T08:44:39.401Z,15.92
2018-05-17T08:45:05.424Z,15.98
2018-05-17T08:45:31.262Z,15.97
2018-05-17T08:45:56.778Z,15.97
2018-05-17T08:46:22.431Z,16.01
2018-05-17T08:46:48.025Z,16.05
2018-05-17T08:47:13.873Z,16.04
2018-05-17T08:47:39.572Z,16.08
2018-05-17T08:48:05.512Z,16.05
2018-05-17T08:48:31.408Z,16.15
2018-05-17T08:48:57.207Z,16.17
2018-05-17T08:49:22.848Z,16.17
2018-05-17T08:49:48.450Z,16.26
2018-05-17T08:50:14.655Z,16.24
2018-05-17T08:50:40.025Z,16.26
2018-05-17T08:51:05.453Z,16.23
2018-05-17T08:51:31.030Z,16.21
2018-05-17T08:51:56.902Z,16.2
2018-05-17T08:52:22.256Z,16.16
2018-05-17T08:52:47.914Z,16.15
2018-05-17T08:53:13.662Z,16.16
2018-05-17T08:53:39.365Z,16.28
2018-05-17T08:54:05.074Z,16.32
2018-05-17T08:54:30.491Z,16.38
2018-05-17T08:54:56.003Z,16.38
2018-05-17T08:55:21.532Z,16.38
2018-05-17T08:55:47.190Z,16.38
2018-05-17T08:56:13.110Z,16.43
2018-05-17T08:56:38.613Z,16.46
2018-05-17T08:57:04.404Z,16.51
2018-05-17T08:57:30.001Z,16.61
2018-05-17T08:57:56.374Z,16.66
2018-05-17T08:58:22.041Z,16.81
2018-05-17T08:58:47.585Z,16.83
2018-05-17T08:59:13.156Z,16.93
2018-05-17T08:59:39.079Z,16.96
2018-05-17T09:00:04.707Z,17.06
2018-05-17T09:00:30.436Z,17.22
2018-05-17T09:01:39.103Z,17.23
2018-05-17T09:02:04.694Z,17.29
2018-05-17T09:02:30.425Z,17.29
2018-05-17T09:02:55.816Z,17.31
2018-05-17T09:03:21.357Z,17.29
2018-05-17T09:03:46.958Z,17.24
2018-05-17T09:04:12.545Z,17.26
2018-05-17T09:04:38.203Z,17.26
2018-05-17T09:05:03.857Z,17.3
2018-05-17T09:05:29.743Z,17.29
2018-05-17T09:05:55.505Z,17.27
2018-05-17T09:06:21.069Z,17.22
2018-05-17T09:06:46.706Z,17.12
2018-05-17T09:07:12.325Z,17.19
2018-05-17T09:07:37.941Z,17.19
2018-05-17T09:08:03.770Z,17.08
2018-05-17T09:08:29.355Z,17.11
2018-05-17T09:08:54.960Z,17.02
2018-05-17T09:09:20.527Z,17.02
2018-05-17T09:09:46.187Z,16.96
2018-05-17T09:10:11.803Z,16.9
2018-05-17T09:10:37.518Z,16.91
2018-05-17T09:11:03.252Z,16.91
2018-05-17T09:11:28.935Z,16.86
2018-05-17T09:11:54.554Z,16.84
2018-05-17T09:12:20.241Z,16.81
2018-05-17T09:12:45.988Z,16.84
2018-05-17T09:13:11.552Z,16.83
2018-05-17T09:13:37.303Z,16.75
2018-05-17T09:14:03.066Z,16.69
2018-05-17T09:14:28.696Z,16.72
2018-05-17T09:14:54.377Z,16.81
2018-05-17T09:15:20.375Z,16.75
2018-05-17T09:15:45.841Z,16.84
2018-05-17T09:16:11.513Z,16.86
2018-05-17T09:16:37.173Z,16.9
2018-05-17T09:17:02.764Z,16.99
2018-05-17T09:17:28.396Z,16.96
2018-05-17T09:17:53.956Z,17.09
2018-05-17T09:18:19.512Z,17.19
2018-05-17T09:18:45.298Z,17.12
2018-05-17T09:19:10.868Z,17.27
2018-05-17T09:19:36.597Z,17.36
2018-05-17T09:20:02.301Z,17.33
2018-05-17T09:20:28.017Z,17.46
2018-05-17T09:20:53.741Z,17.63
2018-05-17T09:21:19.335Z,17.6
2018-05-17T09:21:45.039Z,17.71
2018-05-17T09:22:10.889Z,17.76
2018-05-17T09:22:36.561Z,17.78
2018-05-17T09:23:02.049Z,17.78
2018-05-17T09:23:27.757Z,17.74
2018-05-17T09:23:53.352Z,17.82
2018-05-17T09:24:18.999Z,17.74
2018-05-17T09:24:44.670Z,17.78
2018-05-17T09:25:10.194Z,17.74
2018-05-17T09:25:35.737Z,17.72
2018-05-17T09:26:01.447Z,17.68
2018-05-17T09:26:27.190Z,17.72
2018-05-17T09:26:52.762Z,17.71
2018-05-17T09:27:18.660Z,17.71
2018-05-17T09:27:44.078Z,17.7
2018-05-17T09:28:09.950Z,17.7
2018-05-17T09:28:35.676Z,17.7
2018-05-17T09:29:01.839Z,17.7
2018-05-17T09:29:27.436Z,17.71
2018-05-17T09:29:52.924Z,17.71
2018-05-17T09:30:18.551Z,17.68
2018-05-17T09:30:44.376Z,17.6
2018-05-17T09:31:10.046Z,17.49
2018-05-17T09:31:36.433Z,17.59
2018-05-17T09:32:02.048Z,17.52
2018-05-17T09:32:27.538Z,17.54
2018-05-17T09:32:53.260Z,17.6
2018-05-17T09:33:18.928Z,17.56
2018-05-17T09:33:44.457Z,17.64
2018-05-17T09:34:10.057Z,17.67
2018-05-17T09:34:35.615Z,17.6
2018-05-17T09:35:01.178Z,17.71
2018-05-17T09:35:26.760Z,17.67
2018-05-17T09:35:52.457Z,17.72
2018-05-17T09:36:18.015Z,17.71
2018-05-17T09:36:43.612Z,17.78
2018-05-17T09:37:09.267Z,17.71
2018-05-17T09:37:34.972Z,17.74
2018-05-17T09:38:00.692Z,17.78
2018-05-17T09:38:26.527Z,17.82
2018-05-17T09:38:51.962Z,17.82
2018-05-17T09:39:17.605Z,17.83
2018-05-17T09:39:43.125Z,17.78
2018-05-17T09:40:08.637Z,17.79
2018-05-17T09:40:34.279Z,17.8
2018-05-17T09:40:59.761Z,17.89
2018-05-17T09:41:25.542Z,17.78
2018-05-17T09:41:50.987Z,17.71
2018-05-17T09:42:16.731Z,17.72
2018-05-17T09:42:42.233Z,17.72
2018-05-17T09:43:07.883Z,17.72
2018-05-17T09:43:33.425Z,17.74
2018-05-17T09:43:59.002Z,17.82
2018-05-17T09:44:24.514Z,17.78
2018-05-17T09:44:50.206Z,17.78
2018-05-17T09:45:15.746Z,17.86
2018-05-17T09:45:41.528Z,17.92
2018-05-17T09:46:07.334Z,17.89
2018-05-17T09:46:33.033Z,17.94